Time;durP1;ratioP1;P1;durP2;ratioP2;P2;SDS_P1;SDS_P2;PMS_P1;PMS_P2;Temp;Humidity;BMP_temperature;BMP_pressure;BME280_temperature;BME280_humidity;BME280_pressure;Samples;Min_cycle;Max_cycle;Signal;HPM_P1;HPM_P2
2021/11/20 00:01:54;;;;;;;29.90;17.05;;;9.30;99.90;;;;;;5073139;28;20024;-58
2021/11/20 00:04:20;;;;;;;24.35;14.73;;;9.30;99.90;;;;;;5073356;28;20028;-57
2021/11/20 00:06:49;;;;;;;23.67;15.55;;;9.40;99.90;;;;;;5090868;28;20069;-57
2021/11/20 00:09:18;;;;;;;31.38;15.50;;;9.30;99.90;;;;;;5091631;28;20027;-58
2021/11/20 00:11:46;;;;;;;26.15;15.55;;;9.40;99.90;;;;;;5091690;28;20457;-58
2021/11/20 00:14:13;;;;;;;26.40;15.82;;;9.40;99.90;;;;;;5073679;28;20398;-57
2021/11/20 00:16:41;;;;;;;31.10;16.77;;;9.40;99.90;;;;;;5073300;28;20052;-58
2021/11/20 00:19:07;;;;;;;32.33;17.00;;;9.30;99.90;;;;;;5090914;28;20436;-58
2021/11/20 00:21:38;;;;;;;28.42;15.68;;;9.30;99.90;;;;;;5073247;28;20060;-58
2021/11/20 00:24:06;;;;;;;25.38;15.57;;;9.30;99.90;;;;;;5090878;28;20023;-57
2021/11/20 00:26:35;;;;;;;26.50;14.90;;;9.30;99.90;;;;;;5072838;28;20020;-58
2021/11/20 00:31:48;;;;;;;31.60;16.40;;;9.30;99.90;;;;;;5091517;28;20448;-58
2021/11/20 00:34:19;;;;;;;26.33;16.92;;;9.40;99.90;;;;;;5091542;28;20023;-58
2021/11/20 00:36:46;;;;;;;34.10;17.17;;;9.40;99.90;;;;;;5090581;28;20020;-57
2021/11/20 00:39:13;;;;;;;30.35;16.42;;;9.30;99.90;;;;;;5090950;28;20028;-58
2021/11/20 00:41:40;;;;;;;27.92;15.88;;;9.30;99.90;;;;;;5072903;28;20016;-57
2021/11/20 00:44:06;;;;;;;23.63;15.57;;;9.30;99.90;;;;;;5090458;28;20013;-57
2021/11/20 00:46:33;;;;;;;25.05;15.93;;;9.30;99.90;;;;;;5089894;28;20032;-58
2021/11/20 00:48:59;;;;;;;28.98;17.02;;;9.30;99.90;;;;;;5072018;28;20115;-57
2021/11/20 00:51:28;;;;;;;29.42;16.15;;;9.30;99.90;;;;;;5090744;28;20024;-57
2021/11/20 00:53:55;;;;;;;35.40;16.80;;;9.30;99.90;;;;;;5090444;28;20020;-59
2021/11/20 00:56:23;;;;;;;28.77;17.77;;;9.40;99.90;;;;;;5091241;28;20035;-58
2021/11/20 00:58:49;;;;;;;25.25;15.13;;;9.40;99.90;;;;;;5075233;28;20081;-57
2021/11/20 01:01:19;;;;;;;31.85;18.25;;;9.40;99.90;;;;;;5095360;28;20334;-57
2021/11/20 01:03:44;;;;;;;27.08;16.73;;;9.40;99.90;;;;;;5076120;28;20115;-63
2021/11/20 01:06:10;;;;;;;32.92;17.48;;;9.40;99.90;;;;;;5076921;28;20118;-58
2021/11/20 01:08:40;;;;;;;33.38;17.98;;;9.30;99.90;;;;;;5094860;28;20020;-57
2021/11/20 01:11:18;;;;;;;29.17;17.55;;;9.20;99.90;;;;;;5076214;28;20024;-58
2021/11/20 01:13:43;;;;;;;31.35;18.95;;;9.20;99.90;;;;;;5095369;28;20035;-58
2021/11/20 01:16:12;;;;;;;38.58;19.83;;;9.20;99.90;;;;;;5076013;28;20024;-56
2021/11/20 01:18:38;;;;;;;29.95;17.20;;;9.20;99.90;;;;;;5072660;28;20052;-57
2021/11/20 01:21:04;;;;;;;31.92;18.63;;;9.20;99.90;;;;;;5074231;28;20066;-57
2021/11/20 01:23:32;;;;;;;32.58;18.13;;;9.20;99.90;;;;;;5074527;28;20111;-57
2021/11/20 01:25:59;;;;;;;28.48;18.42;;;9.20;99.90;;;;;;5072500;28;20060;-58
2021/11/20 01:28:28;;;;;;;29.00;17.70;;;9.30;99.90;;;;;;5074328;28;20024;-57
2021/11/20 01:30:54;;;;;;;29.67;17.60;;;9.30;99.90;;;;;;5073681;28;20028;-58
2021/11/20 01:33:20;;;;;;;35.05;20.13;;;9.30;99.90;;;;;;5074351;28;20021;-56
2021/11/20 01:35:46;;;;;;;33.38;17.05;;;9.30;99.90;;;;;;5073732;28;20020;-67
2021/11/20 01:38:12;;;;;;;38.40;20.02;;;9.20;99.90;;;;;;5073818;28;20047;-58
2021/11/20 01:40:40;;;;;;;34.88;19.55;;;9.20;99.90;;;;;;5074030;28;20521;-58
2021/11/20 01:43:08;;;;;;;34.13;19.88;;;9.20;99.90;;;;;;5073234;28;20578;-56
2021/11/20 01:45:38;;;;;;;34.80;20.20;;;9.20;99.90;;;;;;5063883;28;20037;-57
2021/11/20 01:48:26;;;;;;;37.28;19.95;;;9.20;99.90;;;;;;5052778;28;20056;-56
2021/11/20 01:51:15;;;;;;;32.47;18.73;;;9.20;99.90;;;;;;5059342;28;20080;-59
2021/11/20 01:54:07;;;;;;;35.85;20.35;;;9.10;99.90;;;;;;5064843;28;20052;-57
2021/11/20 01:56:42;;;;;;;29.95;18.60;;;9.10;99.90;;;;;;5061311;28;20366;-56
2021/11/20 01:59:13;;;;;;;36.03;18.90;;;9.20;99.90;;;;;;5059468;28;20033;-56
2021/11/20 02:01:44;;;;;;;32.72;19.15;;;9.20;99.90;;;;;;5060381;28;20498;-60
2021/11/20 02:04:29;;;;;;;33.97;19.92;;;10.20;99.90;;;;;;5062158;28;20017;-58
2021/11/20 02:07:04;;;;;;;30.30;17.98;;;10.80;99.90;;;;;;5061551;28;20021;-56
2021/11/20 02:10:06;;;;;;;30.25;18.67;;;10.20;99.90;;;;;;5060604;28;20021;-60
2021/11/20 02:12:41;;;;;;;32.70;19.48;;;9.90;99.90;;;;;;5058395;28;20053;-56
2021/11/20 02:15:16;;;;;;;34.75;19.98;;;9.70;99.90;;;;;;5053083;28;20233;-56
2021/11/20 02:17:50;;;;;;;30.70;18.35;;;9.60;99.90;;;;;;5056150;28;20028;-56
2021/11/20 02:20:40;;;;;;;29.73;20.35;;;9.60;99.90;;;;;;5060566;28;20040;-57
2021/11/20 02:23:06;;;;;;;29.27;18.42;;;9.50;99.90;;;;;;5060657;28;20044;-56
2021/11/20 02:25:31;;;;;;;32.17;19.98;;;9.50;99.90;;;;;;5045757;28;20401;-56
2021/11/20 02:27:57;;;;;;;31.73;19.88;;;9.40;99.90;;;;;;5064627;28;20029;-56
2021/11/20 02:30:31;;;;;;;37.95;21.38;;;9.40;99.90;;;;;;5051914;28;20385;-57
2021/11/20 02:33:02;;;;;;;37.55;19.73;;;9.40;99.90;;;;;;5072103;28;20029;-57
2021/11/20 02:35:35;;;;;;;35.83;20.80;;;9.40;99.90;;;;;;5073068;28;20017;-57
2021/11/20 02:38:01;;;;;;;33.28;20.30;;;9.30;99.90;;;;;;5054641;28;20136;-56
2021/11/20 02:40:29;;;;;;;43.88;23.10;;;9.30;99.90;;;;;;5070694;28;20024;-56
2021/11/20 02:42:55;;;;;;;41.28;22.95;;;9.10;99.90;;;;;;5072266;28;20377;-56
2021/11/20 02:45:32;;;;;;;38.20;20.92;;;9.10;99.90;;;;;;5073194;28;20101;-56
2021/11/20 02:47:59;;;;;;;43.28;23.17;;;9.10;99.90;;;;;;5054195;28;20043;-55
2021/11/20 02:50:39;;;;;;;38.03;21.95;;;9.10;99.90;;;;;;5069484;28;20090;-56
2021/11/20 02:53:08;;;;;;;42.47;22.35;;;9.10;99.90;;;;;;5052090;28;20021;-57
2021/11/20 02:55:34;;;;;;;38.00;21.17;;;9.10;99.90;;;;;;5069166;28;20027;-57
2021/11/20 02:58:00;;;;;;;39.78;21.52;;;9.20;99.90;;;;;;5054155;28;20025;-56
2021/11/20 03:00:26;;;;;;;54.95;23.13;;;9.10;99.90;;;;;;5072790;28;20031;-56
2021/11/20 03:02:52;;;;;;;38.42;21.38;;;9.20;99.90;;;;;;5054028;28;20071;-57
2021/11/20 03:05:19;;;;;;;38.42;22.00;;;9.10;99.90;;;;;;5072249;28;20395;-57
2021/11/20 03:07:44;;;;;;;33.22;20.08;;;9.10;99.90;;;;;;5072466;28;20029;-56
2021/11/20 03:10:10;;;;;;;37.08;21.42;;;9.10;99.90;;;;;;5071941;28;20531;-56
2021/11/20 03:12:36;;;;;;;44.70;23.33;;;9.20;99.90;;;;;;5072526;28;20075;-56
2021/11/20 03:15:04;;;;;;;37.35;21.60;;;9.20;99.90;;;;;;5072265;28;20276;-56
2021/11/20 03:17:31;;;;;;;34.55;19.95;;;9.10;99.90;;;;;;5072500;28;20391;-56
2021/11/20 03:19:57;;;;;;;41.58;21.83;;;9.10;99.90;;;;;;5068190;28;20110;-56
2021/11/20 03:22:33;;;;;;;41.55;21.88;;;9.20;99.90;;;;;;5071771;28;20024;-57
2021/11/20 03:24:59;;;;;;;37.45;21.92;;;9.10;99.90;;;;;;5071700;28;20346;-56
2021/11/20 03:27:25;;;;;;;45.55;21.25;;;9.20;99.90;;;;;;5072401;28;20039;-57
2021/11/20 03:29:51;;;;;;;39.53;21.73;;;9.20;99.90;;;;;;5070106;28;20025;-56
2021/11/20 03:32:18;;;;;;;39.33;21.95;;;9.20;99.90;;;;;;5071934;28;20025;-56
2021/11/20 03:34:43;;;;;;;41.95;22.25;;;9.10;99.90;;;;;;5072029;28;20020;-56
2021/11/20 03:37:10;;;;;;;42.00;22.67;;;9.10;99.90;;;;;;5071475;28;20327;-56
2021/11/20 03:39:37;;;;;;;41.53;22.25;;;9.20;99.90;;;;;;5070239;28;20111;-57
2021/11/20 03:42:04;;;;;;;36.95;21.15;;;9.20;99.90;;;;;;5071089;28;20012;-56
2021/11/20 03:44:31;;;;;;;41.72;21.58;;;9.30;99.90;;;;;;5072152;28;20025;-55
2021/11/20 03:46:57;;;;;;;40.28;22.42;;;9.10;99.90;;;;;;5071195;28;20025;-56
2021/11/20 03:49:23;;;;;;;33.95;21.13;;;9.10;99.90;;;;;;5071563;28;20085;-56
2021/11/20 03:51:48;;;;;;;36.15;21.02;;;9.20;99.90;;;;;;5070380;28;20137;-57
2021/11/20 03:54:14;;;;;;;37.67;23.58;;;9.20;99.90;;;;;;5069652;28;20020;-57
2021/11/20 03:56:40;;;;;;;38.10;20.80;;;9.10;99.90;;;;;;5071766;28;20023;-56
2021/11/20 03:59:06;;;;;;;38.05;21.48;;;9.10;99.90;;;;;;5070975;28;20077;-57
2021/11/20 04:01:32;;;;;;;36.20;21.40;;;9.20;99.90;;;;;;5071474;28;20016;-56
2021/11/20 04:03:58;;;;;;;37.85;20.33;;;9.10;99.90;;;;;;5070113;28;20100;-57
2021/11/20 04:06:24;;;;;;;43.13;23.20;;;9.20;99.90;;;;;;5050447;28;20580;-57
2021/11/20 04:08:51;;;;;;;42.53;23.70;;;9.20;99.90;;;;;;5051288;28;20029;-57
2021/11/20 04:11:22;;;;;;;39.90;22.25;;;9.20;99.90;;;;;;5051258;28;20107;-57
2021/11/20 04:13:48;;;;;;;41.20;21.73;;;9.20;99.90;;;;;;5050454;28;20017;-55
2021/11/20 04:16:15;;;;;;;41.78;22.50;;;9.20;99.90;;;;;;5049337;28;20302;-56
2021/11/20 04:18:42;;;;;;;37.95;19.90;;;9.20;99.90;;;;;;5049875;28;20048;-56
2021/11/20 04:21:09;;;;;;;40.50;22.13;;;9.10;99.90;;;;;;5049324;28;20112;-56
2021/11/20 04:23:35;;;;;;;40.08;22.27;;;9.10;99.90;;;;;;5049951;28;20021;-56
2021/11/20 04:26:03;;;;;;;38.63;22.15;;;9.20;99.90;;;;;;5049432;28;20468;-56
2021/11/20 04:28:29;;;;;;;39.78;22.92;;;9.10;99.90;;;;;;5049994;28;20078;-56
2021/11/20 04:30:55;;;;;;;39.45;20.95;;;9.10;99.90;;;;;;5050865;28;20029;-56
2021/11/20 04:33:20;;;;;;;40.03;22.85;;;9.20;99.90;;;;;;5056659;28;20029;-56
2021/11/20 04:35:46;;;;;;;39.95;22.42;;;9.10;99.90;;;;;;5057609;28;20100;-56
2021/11/20 04:38:12;;;;;;;37.13;22.88;;;9.20;99.90;;;;;;5056966;28;20025;-56
2021/11/20 04:40:39;;;;;;;39.40;22.63;;;9.10;99.90;;;;;;5056432;28;20358;-56
2021/11/20 04:43:05;;;;;;;37.00;21.50;;;9.10;99.90;;;;;;5057298;28;20021;-56
2021/11/20 04:45:33;;;;;;;39.90;23.35;;;9.10;99.90;;;;;;5058033;28;20104;-57
2021/11/20 04:48:00;;;;;;;39.08;23.45;;;9.10;99.90;;;;;;5057003;28;20100;-56
2021/11/20 04:50:27;;;;;;;39.05;21.70;;;9.10;99.90;;;;;;5057955;28;20167;-56
2021/11/20 04:52:52;;;;;;;38.20;22.52;;;9.10;99.90;;;;;;5056561;28;20025;-56
2021/11/20 04:55:19;;;;;;;42.33;22.52;;;9.10;99.90;;;;;;5039321;28;20032;-57
2021/11/20 04:57:45;;;;;;;36.55;22.45;;;9.00;99.90;;;;;;5057693;28;20353;-56
2021/11/20 05:00:27;;;;;;;39.35;24.05;;;9.10;99.90;;;;;;5057026;28;20376;-56
2021/11/20 05:02:54;;;;;;;38.47;23.52;;;9.10;99.90;;;;;;5057621;28;20032;-57
2021/11/20 05:05:20;;;;;;;40.90;23.00;;;9.00;99.90;;;;;;5056666;28;20017;-56
2021/11/20 05:07:46;;;;;;;45.72;23.70;;;9.10;99.90;;;;;;5063515;28;20111;-57
2021/11/20 05:10:12;;;;;;;40.65;22.65;;;9.10;99.90;;;;;;5075707;28;20123;-57
2021/11/20 05:12:39;;;;;;;45.60;22.75;;;9.10;99.90;;;;;;5076267;28;20024;-56
2021/11/20 05:15:08;;;;;;;43.05;23.58;;;9.10;99.90;;;;;;5076675;28;20154;-56
2021/11/20 05:17:34;;;;;;;42.55;23.50;;;9.10;99.90;;;;;;5077652;28;20071;-55
2021/11/20 05:19:59;;;;;;;42.13;23.40;;;9.10;99.90;;;;;;5075060;28;20064;-56
2021/11/20 05:22:25;;;;;;;39.35;23.10;;;9.20;99.90;;;;;;5077404;28;20091;-56
2021/11/20 05:24:51;;;;;;;39.35;23.25;;;9.20;99.90;;;;;;5077316;28;20028;-56
2021/11/20 05:27:17;;;;;;;38.15;22.60;;;9.20;99.90;;;;;;5076394;28;20119;-57
2021/11/20 05:32:21;;;;;;;40.05;21.98;;;9.10;99.90;;;;;;5076587;28;20032;-57
2021/11/20 05:34:46;;;;;;;41.60;23.58;;;9.10;99.90;;;;;;5076863;28;20103;-56
2021/11/20 05:37:12;;;;;;;43.13;23.17;;;9.00;99.90;;;;;;5076276;28;20028;-56
2021/11/20 05:39:38;;;;;;;42.58;24.10;;;9.00;99.90;;;;;;5076793;28;20024;-56
2021/11/20 05:42:05;;;;;;;41.97;23.85;;;9.00;99.90;;;;;;5076450;28;20020;-57
2021/11/20 05:44:31;;;;;;;41.25;24.23;;;9.10;99.90;;;;;;5073964;28;20028;-56
2021/11/20 05:47:00;;;;;;;42.90;23.77;;;9.00;99.90;;;;;;5074151;28;20021;-56
2021/11/20 05:49:30;;;;;;;43.03;23.67;;;9.00;99.90;;;;;;5073556;28;20449;-57
2021/11/20 05:51:57;;;;;;;48.47;25.03;;;9.10;99.90;;;;;;5073634;28;20024;-56
2021/11/20 05:54:23;;;;;;;42.03;24.52;;;9.00;99.90;;;;;;5073159;28;20046;-56
2021/11/20 05:56:49;;;;;;;45.13;24.75;;;9.00;99.90;;;;;;5073879;28;20021;-56
2021/11/20 05:59:15;;;;;;;43.60;24.92;;;8.90;99.90;;;;;;5073032;28;20071;-57
2021/11/20 06:01:41;;;;;;;39.85;22.40;;;9.00;99.90;;;;;;5073606;28;20048;-56
2021/11/20 06:04:07;;;;;;;36.00;22.10;;;9.00;99.90;;;;;;5073057;28;20502;-57
2021/11/20 06:06:33;;;;;;;36.20;21.15;;;9.00;99.90;;;;;;5073615;28;20116;-57
2021/11/20 06:08:58;;;;;;;44.80;23.75;;;9.10;99.90;;;;;;5072290;28;20074;-56
2021/11/20 06:11:24;;;;;;;41.38;23.05;;;9.10;99.90;;;;;;5072966;28;20040;-57
2021/11/20 06:13:50;;;;;;;41.95;21.98;;;9.10;99.90;;;;;;5072016;28;20020;-56
2021/11/20 06:16:16;;;;;;;41.92;23.52;;;9.20;99.90;;;;;;5071330;28;20111;-57
2021/11/20 06:18:41;;;;;;;42.92;23.88;;;9.20;99.90;;;;;;5081494;28;20122;-57
2021/11/20 06:21:08;;;;;;;36.50;20.90;;;9.20;99.90;;;;;;5092975;28;20035;-57
2021/11/20 06:23:38;;;;;;;39.42;22.58;;;9.20;99.90;;;;;;5093542;28;20035;-56
2021/11/20 06:26:04;;;;;;;41.42;23.08;;;9.10;99.90;;;;;;5092837;28;20065;-57
2021/11/20 06:28:30;;;;;;;38.78;23.05;;;9.20;99.90;;;;;;5093297;28;20464;-56
2021/11/20 06:30:56;;;;;;;42.03;23.83;;;9.20;99.90;;;;;;5058612;28;20028;-56
2021/11/20 06:33:22;;;;;;;45.22;23.67;;;9.20;99.90;;;;;;5092777;28;20020;-56
2021/11/20 06:35:47;;;;;;;44.67;24.48;;;9.30;99.90;;;;;;5092894;28;20111;-56
2021/11/20 06:38:13;;;;;;;41.00;23.08;;;9.20;99.90;;;;;;5074355;28;20107;-58
2021/11/20 06:40:43;;;;;;;38.88;23.17;;;9.20;99.90;;;;;;5074558;28;20020;-56
2021/11/20 06:43:11;;;;;;;37.67;23.02;;;9.20;99.90;;;;;;5092437;28;20020;-56
2021/11/20 06:45:40;;;;;;;42.25;23.33;;;9.20;99.90;;;;;;5093043;28;20064;-55
2021/11/20 06:48:07;;;;;;;36.92;22.52;;;9.10;99.90;;;;;;5092022;28;20491;-56
2021/11/20 06:50:34;;;;;;;44.05;23.23;;;9.00;99.90;;;;;;5074806;28;20128;-57
2021/11/20 06:53:05;;;;;;;43.45;24.58;;;9.10;99.90;;;;;;5074257;28;20020;-55
2021/11/20 06:55:34;;;;;;;44.72;24.23;;;9.10;99.90;;;;;;5083666;28;20436;-56
2021/11/20 07:00:44;;;;;;;41.78;22.55;;;9.10;99.90;;;;;;5072661;28;20357;-56
2021/11/20 07:03:14;;;;;;;43.85;22.95;;;9.00;99.90;;;;;;5071703;28;20031;-57
2021/11/20 07:05:55;;;;;;;42.25;22.63;;;9.10;99.90;;;;;;5072358;28;20021;-57
2021/11/20 07:08:22;;;;;;;46.85;23.63;;;9.20;99.90;;;;;;5053384;28;20025;-57
2021/11/20 07:10:49;;;;;;;41.83;23.70;;;9.10;99.90;;;;;;5072310;28;20053;-56
2021/11/20 07:13:16;;;;;;;39.65;22.55;;;9.00;99.90;;;;;;5071359;28;20025;-56
2021/11/20 07:15:42;;;;;;;46.95;24.05;;;9.00;99.90;;;;;;5072249;28;20370;-56
2021/11/20 07:18:08;;;;;;;39.67;22.80;;;9.00;99.90;;;;;;5070831;28;20056;-55
2021/11/20 07:20:37;;;;;;;38.35;21.40;;;9.10;99.90;;;;;;5053620;28;20025;-57
2021/11/20 07:23:03;;;;;;;37.33;20.98;;;9.10;99.90;;;;;;5072274;28;20031;-56
2021/11/20 07:25:31;;;;;;;43.83;21.98;;;9.10;99.90;;;;;;5071531;28;20458;-56
2021/11/20 07:27:57;;;;;;;35.80;22.77;;;9.10;99.90;;;;;;5053925;28;20028;-57
2021/11/20 07:30:27;;;;;;;30.55;19.02;;;9.20;99.90;;;;;;5071342;28;20493;-56
2021/11/20 07:32:53;;;;;;;40.15;22.23;;;9.20;99.90;;;;;;5071907;28;20021;-56
2021/11/20 07:35:35;;;;;;;35.63;20.95;;;9.30;99.90;;;;;;5070982;28;20104;-56
2021/11/20 07:38:04;;;;;;;34.08;19.60;;;9.20;99.90;;;;;;5071553;28;20028;-56
2021/11/20 07:40:33;;;;;;;36.97;19.90;;;9.20;99.90;;;;;;5070933;28;20336;-56
2021/11/20 07:42:58;;;;;;;30.67;18.70;;;9.20;99.90;;;;;;5071585;28;20028;-56
2021/11/20 07:45:25;;;;;;;34.72;20.90;;;9.30;99.90;;;;;;5070895;28;20107;-56
2021/11/20 07:47:50;;;;;;;32.45;19.30;;;9.30;99.90;;;;;;5071715;28;20442;-56
2021/11/20 07:50:17;;;;;;;29.13;18.65;;;9.30;99.90;;;;;;5071246;28;20027;-56
2021/11/20 07:52:44;;;;;;;33.95;19.55;;;9.30;99.90;;;;;;5071364;28;20029;-55
2021/11/20 07:55:11;;;;;;;31.83;19.30;;;9.20;99.90;;;;;;5070443;28;20038;-55
2021/11/20 07:57:38;;;;;;;34.33;19.67;;;9.30;99.90;;;;;;5071177;28;20071;-56
2021/11/20 08:00:08;;;;;;;30.27;18.17;;;9.30;99.90;;;;;;5071287;28;20099;-57
2021/11/20 08:02:33;;;;;;;37.08;18.42;;;9.30;99.90;;;;;;5085075;28;20043;-57
2021/11/20 08:04:59;;;;;;;36.78;20.08;;;9.30;99.90;;;;;;5091368;28;20028;-57
2021/11/20 08:07:24;;;;;;;38.22;19.38;;;9.40;99.90;;;;;;5090343;28;20027;-57
2021/11/20 08:09:50;;;;;;;31.85;17.88;;;9.40;99.90;;;;;;5087498;28;20067;-57
2021/11/20 08:12:16;;;;;;;34.78;18.42;;;9.40;99.90;;;;;;5057401;28;20416;-56
2021/11/20 08:14:41;;;;;;;29.75;16.08;;;9.50;99.90;;;;;;5070810;28;20345;-57
2021/11/20 08:17:09;;;;;;;57.13;27.20;;;9.50;99.90;;;;;;5071240;28;20144;-57
2021/11/20 08:19:35;;;;;;;39.13;22.30;;;10.60;99.90;;;;;;5070619;28;20040;-57
2021/11/20 08:22:01;;;;;;;40.88;18.90;;;10.30;99.90;;;;;;5052778;28;20315;-57
2021/11/20 08:24:28;;;;;;;30.92;18.52;;;10.50;99.90;;;;;;5053155;28;20020;-56
2021/11/20 08:26:54;;;;;;;27.42;17.25;;;10.10;99.90;;;;;;5075430;28;20021;-56
2021/11/20 08:29:20;;;;;;;29.52;18.17;;;9.90;99.90;;;;;;5084927;28;20194;-57
2021/11/20 08:31:48;;;;;;;38.25;18.52;;;9.90;99.90;;;;;;5076213;28;20484;-56
2021/11/20 08:34:15;;;;;;;27.23;17.95;;;9.80;99.90;;;;;;5088297;28;20080;-57
2021/11/20 08:36:42;;;;;;;28.05;17.80;;;9.80;99.90;;;;;;5091009;28;20028;-56
2021/11/20 08:39:11;;;;;;;29.40;17.98;;;9.80;99.90;;;;;;5090594;28;20031;-56
2021/11/20 08:41:36;;;;;;;30.60;17.83;;;9.80;99.90;;;;;;5090933;28;20016;-56
2021/11/20 08:44:02;;;;;;;31.30;19.52;;;9.70;99.90;;;;;;5090794;28;20438;-55
2021/11/20 08:46:29;;;;;;;27.88;16.88;;;9.70;99.90;;;;;;5090625;28;20027;-56
2021/11/20 08:48:55;;;;;;;30.50;18.95;;;9.80;99.90;;;;;;5090912;28;20036;-56
2021/11/20 08:51:23;;;;;;;29.48;17.95;;;9.80;99.90;;;;;;5089950;28;20032;-56
2021/11/20 08:53:50;;;;;;;29.27;17.17;;;9.90;99.90;;;;;;5090886;28;20020;-56
2021/11/20 08:56:17;;;;;;;31.88;18.20;;;9.90;99.90;;;;;;5089942;28;20024;-57
2021/11/20 08:58:43;;;;;;;29.17;17.77;;;9.90;99.90;;;;;;5089667;28;20484;-56
2021/11/20 09:01:16;;;;;;;29.70;17.08;;;9.80;99.90;;;;;;5090924;28;20016;-57
2021/11/20 09:03:54;;;;;;;31.13;18.10;;;9.80;99.90;;;;;;5081657;28;20021;-57
2021/11/20 09:06:26;;;;;;;29.88;17.40;;;9.90;99.90;;;;;;5069594;28;20024;-57
2021/11/20 09:08:58;;;;;;;28.17;17.27;;;9.90;99.90;;;;;;5070334;28;20028;-57
2021/11/20 09:11:35;;;;;;;32.38;18.08;;;9.90;99.90;;;;;;5069483;28;20504;-57
2021/11/20 09:14:22;;;;;;;27.40;16.80;;;9.90;99.90;;;;;;5070752;28;20021;-56
2021/11/20 09:16:47;;;;;;;28.90;16.83;;;10.10;99.90;;;;;;5076545;28;20051;-56
2021/11/20 09:19:14;;;;;;;29.65;17.45;;;10.10;99.90;;;;;;5067674;28;20068;-58
2021/11/20 09:21:40;;;;;;;26.60;16.98;;;10.10;99.90;;;;;;5073712;28;20074;-58
2021/11/20 09:24:08;;;;;;;30.05;18.15;;;10.20;99.90;;;;;;5052986;28;20035;-58
2021/11/20 09:26:36;;;;;;;26.38;17.33;;;10.10;99.90;;;;;;5072793;28;20024;-57
2021/11/20 09:29:05;;;;;;;29.23;17.58;;;10.10;99.90;;;;;;5072710;28;20032;-57
2021/11/20 09:31:32;;;;;;;27.48;17.77;;;9.90;99.90;;;;;;5072011;28;20050;-57
2021/11/20 09:33:57;;;;;;;26.13;16.77;;;9.90;99.90;;;;;;5054167;28;20040;-57
2021/11/20 09:36:25;;;;;;;31.13;18.58;;;9.90;99.90;;;;;;5064793;28;20016;-56
2021/11/20 09:38:51;;;;;;;29.42;17.17;;;9.90;99.90;;;;;;5072649;28;20142;-58
2021/11/20 09:41:24;;;;;;;29.23;16.67;;;10.10;99.90;;;;;;5068728;28;20470;-56
2021/11/20 09:43:59;;;;;;;31.00;18.38;;;10.10;99.90;;;;;;5073196;28;20035;-56
2021/11/20 09:46:36;;;;;;;24.48;15.98;;;10.10;99.90;;;;;;5068885;28;20024;-58
2021/11/20 09:49:10;;;;;;;32.53;18.08;;;10.10;99.90;;;;;;5064133;28;20020;-57
2021/11/20 09:51:42;;;;;;;30.50;17.02;;;10.00;99.90;;;;;;5050749;28;20025;-57
2021/11/20 09:54:17;;;;;;;30.38;17.55;;;10.00;99.90;;;;;;5064375;28;20017;-57
2021/11/20 09:57:07;;;;;;;26.95;17.02;;;10.00;99.90;;;;;;5064177;28;20016;-57
2021/11/20 09:59:39;;;;;;;25.58;16.05;;;10.10;99.90;;;;;;5061371;28;20502;-56
2021/11/20 10:02:16;;;;;;;32.35;16.95;;;10.10;99.90;;;;;;5061838;28;20085;-58
2021/11/20 10:04:52;;;;;;;29.38;16.58;;;10.10;99.90;;;;;;5065511;28;20078;-57
2021/11/20 10:07:30;;;;;;;29.40;16.20;;;10.00;99.90;;;;;;5064751;28;20331;-58
2021/11/20 10:10:02;;;;;;;31.65;18.27;;;10.00;99.90;;;;;;5044423;28;20052;-58
2021/11/20 10:12:41;;;;;;;30.15;17.55;;;10.00;99.90;;;;;;5059008;28;20009;-57
2021/11/20 10:15:29;;;;;;;29.08;17.27;;;10.00;99.90;;;;;;5061834;28;20462;-59
2021/11/20 10:18:18;;;;;;;26.48;17.20;;;10.20;99.90;;;;;;5067937;28;20485;-59
2021/11/20 10:20:54;;;;;;;26.67;16.50;;;10.30;99.90;;;;;;5060389;28;20117;-58
2021/11/20 10:23:45;;;;;;;30.67;16.75;;;10.30;99.90;;;;;;5078183;28;20095;-57
2021/11/20 10:26:35;;;;;;;29.92;17.02;;;10.40;99.90;;;;;;5073843;28;20021;-56
2021/11/20 10:29:32;;;;;;;27.48;17.38;;;10.30;99.90;;;;;;5076650;28;20543;-57
2021/11/20 10:32:11;;;;;;;23.98;16.27;;;10.30;99.90;;;;;;5081550;28;20031;-58
2021/11/20 10:34:53;;;;;;;24.92;16.42;;;10.30;99.90;;;;;;5070452;28;20098;-57
2021/11/20 10:37:27;;;;;;;28.33;15.93;;;10.30;99.90;;;;;;5060009;28;20032;-57
2021/11/20 10:39:57;;;;;;;26.05;16.13;;;10.30;99.90;;;;;;5066600;28;20028;-57
2021/11/20 10:42:38;;;;;;;23.25;14.70;;;10.30;99.90;;;;;;5062618;28;20024;-58
2021/11/20 10:45:16;;;;;;;26.42;15.63;;;10.30;99.90;;;;;;5077110;28;20089;-57
2021/11/20 10:47:58;;;;;;;27.60;16.48;;;10.30;99.90;;;;;;5082106;28;20032;-58
2021/11/20 10:50:41;;;;;;;26.15;15.82;;;10.30;99.90;;;;;;5066839;28;20028;-57
2021/11/20 10:53:15;;;;;;;27.85;15.65;;;10.30;99.90;;;;;;5065762;28;20039;-57
2021/11/20 10:56:15;;;;;;;25.27;15.43;;;10.40;99.90;;;;;;5059451;28;20425;-57
2021/11/20 10:58:50;;;;;;;25.27;15.50;;;10.60;99.90;;;;;;5066335;28;20058;-58
2021/11/20 11:01:34;;;;;;;25.52;15.48;;;10.50;99.90;;;;;;5062774;28;20020;-57
2021/11/20 11:04:16;;;;;;;22.15;14.82;;;10.60;99.90;;;;;;5089995;28;20051;-59
2021/11/20 11:07:04;;;;;;;29.40;15.52;;;10.70;99.90;;;;;;5068421;28;20562;-58
2021/11/20 11:09:33;;;;;;;21.30;14.48;;;10.80;99.90;;;;;;5067970;28;20140;-58
2021/11/20 11:12:17;;;;;;;26.17;15.43;;;10.80;99.90;;;;;;5068315;28;20051;-56
2021/11/20 11:15:13;;;;;;;23.23;14.98;;;10.90;99.90;;;;;;5076952;28;20016;-59
2021/11/20 11:18:17;;;;;;;22.17;13.80;;;10.70;99.90;;;;;;5078630;28;20020;-57
2021/11/20 11:21:00;;;;;;;21.05;14.20;;;10.80;99.90;;;;;;5077501;28;20089;-59
2021/11/20 11:23:47;;;;;;;23.05;13.40;;;11.00;99.90;;;;;;5066175;28;20477;-59
2021/11/20 11:26:15;;;;;;;18.63;13.18;;;11.50;99.90;;;;;;5075749;28;20027;-57
2021/11/20 11:28:58;;;;;;;21.38;13.60;;;11.30;99.90;;;;;;5073585;28;20473;-57
2021/11/20 11:31:39;;;;;;;26.50;14.07;;;11.10;99.90;;;;;;5078735;28;20684;-57
2021/11/20 11:34:16;;;;;;;23.63;14.65;;;11.10;99.90;;;;;;5081116;28;20028;-57
2021/11/20 11:36:57;;;;;;;24.88;12.30;;;11.30;99.90;;;;;;5077454;28;20032;-67
2021/11/20 11:39:48;;;;;;;21.67;13.60;;;12.10;99.90;;;;;;5068115;28;20026;-58
2021/11/20 11:42:38;;;;;;;23.90;13.63;;;12.10;99.90;;;;;;5079847;28;20635;-56
2021/11/20 11:45:39;;;;;;;26.48;13.80;;;11.70;99.90;;;;;;5079580;28;20028;-58
2021/11/20 11:48:27;;;;;;;20.90;13.02;;;11.50;99.90;;;;;;5060770;28;20044;-57
2021/11/20 11:51:16;;;;;;;21.73;13.70;;;11.40;99.90;;;;;;5077359;28;20034;-57
2021/11/20 11:54:04;;;;;;;21.70;14.75;;;11.40;99.90;;;;;;5078635;28;20025;-58
2021/11/20 11:56:42;;;;;;;22.05;14.27;;;11.40;99.90;;;;;;5077285;28;20016;-59
2021/11/20 11:59:25;;;;;;;26.38;14.98;;;11.40;99.90;;;;;;5081143;28;20060;-56
2021/11/20 12:01:53;;;;;;;20.33;14.50;;;11.50;99.90;;;;;;5076070;28;20081;-57
2021/11/20 12:04:40;;;;;;;20.13;13.80;;;11.60;99.90;;;;;;5051054;28;20125;-59
2021/11/20 12:07:45;;;;;;;19.42;13.20;;;11.30;99.90;;;;;;5051822;28;20021;-57
2021/11/20 12:10:22;;;;;;;24.33;14.18;;;11.30;99.90;;;;;;5087303;28;20051;-57
2021/11/20 12:13:04;;;;;;;25.02;13.95;;;11.30;99.90;;;;;;5089178;28;20328;-57
2021/11/20 12:15:37;;;;;;;20.70;14.00;;;11.40;99.90;;;;;;5088920;28;20024;-57
2021/11/20 12:18:22;;;;;;;18.33;12.98;;;11.40;99.90;;;;;;5089414;28;21518;-57
2021/11/20 12:21:16;;;;;;;21.63;13.23;;;11.50;99.90;;;;;;5071277;28;20043;-58
2021/11/20 12:23:49;;;;;;;20.08;12.73;;;11.40;99.90;;;;;;5069501;28;20032;-57
2021/11/20 12:26:23;;;;;;;16.63;11.88;;;11.30;99.90;;;;;;5051466;28;20093;-64
2021/11/20 12:29:07;;;;;;;18.23;12.27;;;11.40;99.90;;;;;;5069559;28;20040;-56
2021/11/20 12:32:10;;;;;;;13.38;11.48;;;11.40;99.90;;;;;;5050841;28;20441;-56
2021/11/20 12:35:06;;;;;;;13.05;10.60;;;11.60;99.90;;;;;;5061790;28;20102;-56
2021/11/20 12:37:45;;;;;;;17.38;11.90;;;11.60;99.90;;;;;;5069006;28;20059;-57
2021/11/20 12:40:22;;;;;;;12.98;10.13;;;11.60;99.90;;;;;;5071549;28;20027;-59
2021/11/20 12:43:09;;;;;;;17.15;12.57;;;11.60;99.90;;;;;;5069493;28;20203;-57
2021/11/20 12:45:44;;;;;;;23.30;14.27;;;11.60;99.90;;;;;;5080357;28;20043;-57
2021/11/20 12:48:34;;;;;;;23.75;15.73;;;11.60;99.90;;;;;;5089135;28;20446;-56
2021/11/20 12:51:28;;;;;;;17.27;10.13;;;11.60;99.90;;;;;;5080982;28;20043;-51
2021/11/20 12:54:06;;;;;;;16.75;11.00;;;12.30;99.90;;;;;;5071197;28;20112;-50
2021/11/20 12:56:42;;;;;;;18.20;12.85;;;13.00;99.90;;;;;;5072500;28;20036;-58
2021/11/20 12:59:13;;;;;;;14.18;9.82;;;13.60;99.90;;;;;;5072993;28;20036;-57
2021/11/20 13:01:44;;;;;;;19.98;12.73;;;12.70;99.90;;;;;;5054288;28;20120;-57
2021/11/20 13:04:19;;;;;;;15.95;10.95;;;12.30;99.90;;;;;;5073700;28;20388;-57